sensor_id;sensor_type;location;lat;lon;timestamp;pressure;altitude;pressure_sealevel;temperature;humidity
35989;BME280;22064;42.672;23.282;2023-02-03T00:02:42;94870.78;;;1.13;100.00
35989;BME280;22064;42.672;23.282;2023-02-03T00:05:26;94861.94;;;1.01;100.00
35989;BME280;22064;42.672;23.282;2023-02-03T00:08:11;94857.25;;;0.90;100.00
35989;BME280;22064;42.672;23.282;2023-02-03T00:10:56;94864.25;;;0.96;100.00
35989;BME280;22064;42.672;23.282;2023-02-03T00:13:41;94863.34;;;0.89;100.00
35989;BME280;22064;42.672;23.282;2023-02-03T00:16:25;94875.38;;;0.88;100.00
35989;BME280;22064;42.672;23.282;2023-02-03T00:19:10;94884.50;;;0.91;100.00
35989;BME280;22064;42.672;23.282;2023-02-03T00:21:54;94879.34;;;0.76;100.00
35989;BME280;22064;42.672;23.282;2023-02-03T00:24:39;94881.13;;;0.76;100.00
35989;BME280;22064;42.672;23.282;2023-02-03T00:27:23;94864.13;;;0.75;100.00
35989;BME280;22064;42.672;23.282;2023-02-03T00:30:08;94889.41;;;0.78;100.00
35989;BME280;22064;42.672;23.282;2023-02-03T00:32:52;94873.59;;;0.74;100.00
35989;BME280;22064;42.672;23.282;2023-02-03T00:35:38;94885.81;;;0.72;100.00
35989;BME280;22064;42.672;23.282;2023-02-03T00:38:26;94881.13;;;0.76;100.00
35989;BME280;22064;42.672;23.282;2023-02-03T00:41:11;94880.84;;;0.71;100.00
35989;BME280;22064;42.672;23.282;2023-02-03T00:43:55;94874.28;;;0.53;100.00
35989;BME280;22064;42.672;23.282;2023-02-03T00:46:40;94882.31;;;0.65;100.00
35989;BME280;22064;42.672;23.282;2023-02-03T00:49:24;94881.09;;;0.61;100.00
35989;BME280;22064;42.672;23.282;2023-02-03T00:52:09;94888.81;;;0.76;100.00
35989;BME280;22064;42.672;23.282;2023-02-03T00:54:55;94892.06;;;0.69;100.00
35989;BME280;22064;42.672;23.282;2023-02-03T00:57:39;94892.59;;;0.80;100.00
35989;BME280;22064;42.672;23.282;2023-02-03T01:00:24;94896.94;;;0.79;100.00
35989;BME280;22064;42.672;23.282;2023-02-03T01:03:08;94906.22;;;0.80;100.00
35989;BME280;22064;42.672;23.282;2023-02-03T01:05:53;94921.59;;;0.80;100.00
35989;BME280;22064;42.672;23.282;2023-02-03T01:08:37;94928.22;;;0.75;100.00
35989;BME280;22064;42.672;23.282;2023-02-03T01:11:26;94898.19;;;0.45;100.00
35989;BME280;22064;42.672;23.282;2023-02-03T01:14:10;94908.09;;;0.49;100.00
35989;BME280;22064;42.672;23.282;2023-02-03T01:16:54;94928.09;;;0.53;100.00
35989;BME280;22064;42.672;23.282;2023-02-03T01:19:39;94915.53;;;0.58;100.00
35989;BME280;22064;42.672;23.282;2023-02-03T01:22:23;94913.66;;;0.52;100.00
35989;BME280;22064;42.672;23.282;2023-02-03T01:25:07;94907.94;;;0.65;100.00
35989;BME280;22064;42.672;23.282;2023-02-03T01:27:51;94908.00;;;0.42;100.00
35989;BME280;22064;42.672;23.282;2023-02-03T01:30:36;94921.00;;;0.55;100.00
35989;BME280;22064;42.672;23.282;2023-02-03T01:33:21;94908.53;;;0.52;100.00
35989;BME280;22064;42.672;23.282;2023-02-03T01:36:09;94907.00;;;0.43;100.00
35989;BME280;22064;42.672;23.282;2023-02-03T01:38:53;94911.63;;;0.48;100.00
35989;BME280;22064;42.672;23.282;2023-02-03T01:41:40;94907.69;;;0.37;100.00
35989;BME280;22064;42.672;23.282;2023-02-03T01:44:43;94922.03;;;0.46;100.00
35989;BME280;22064;42.672;23.282;2023-02-03T01:47:49;94919.66;;;0.44;100.00
35989;BME280;22064;42.672;23.282;2023-02-03T01:50:36;94931.63;;;0.29;100.00
35989;BME280;22064;42.672;23.282;2023-02-03T01:53:21;94918.81;;;0.29;100.00
35989;BME280;22064;42.672;23.282;2023-02-03T01:56:06;94923.59;;;0.32;100.00
35989;BME280;22064;42.672;23.282;2023-02-03T01:58:51;94924.34;;;0.41;100.00
35989;BME280;22064;42.672;23.282;2023-02-03T02:01:35;94923.06;;;0.37;100.00
35989;BME280;22064;42.672;23.282;2023-02-03T02:04:21;94913.81;;;0.36;100.00
35989;BME280;22064;42.672;23.282;2023-02-03T02:07:08;94917.94;;;0.37;100.00
35989;BME280;22064;42.672;23.282;2023-02-03T02:09:54;94928.78;;;0.47;100.00
35989;BME280;22064;42.672;23.282;2023-02-03T02:12:38;94935.78;;;0.53;100.00
35989;BME280;22064;42.672;23.282;2023-02-03T02:15:31;94931.16;;;0.49;100.00
35989;BME280;22064;42.672;23.282;2023-02-03T02:30:23;94944.94;;;0.48;100.00
35989;BME280;22064;42.672;23.282;2023-02-03T02:36:29;94960.25;;;0.56;100.00
35989;BME280;22064;42.672;23.282;2023-02-03T02:39:22;94948.25;;;0.56;100.00
35989;BME280;22064;42.672;23.282;2023-02-03T02:46:13;94958.16;;;0.59;100.00
35989;BME280;22064;42.672;23.282;2023-02-03T02:49:10;94934.91;;;0.61;100.00
35989;BME280;22064;42.672;23.282;2023-02-03T02:51:59;94937.03;;;0.57;100.00
35989;BME280;22064;42.672;23.282;2023-02-03T02:54:49;94974.31;;;0.60;100.00
35989;BME280;22064;42.672;23.282;2023-02-03T02:57:36;94966.00;;;0.58;100.00
35989;BME280;22064;42.672;23.282;2023-02-03T03:00:21;94961.41;;;0.53;100.00
35989;BME280;22064;42.672;23.282;2023-02-03T03:03:14;94967.72;;;0.65;100.00
35989;BME280;22064;42.672;23.282;2023-02-03T03:06:07;94977.97;;;0.65;100.00
35989;BME280;22064;42.672;23.282;2023-02-03T03:09:08;94978.56;;;0.67;100.00
35989;BME280;22064;42.672;23.282;2023-02-03T03:11:59;95009.44;;;0.51;100.00
35989;BME280;22064;42.672;23.282;2023-02-03T03:14:57;94978.69;;;0.51;100.00
35989;BME280;22064;42.672;23.282;2023-02-03T03:18:09;95017.09;;;0.59;100.00
35989;BME280;22064;42.672;23.282;2023-02-03T03:20:56;94988.56;;;0.62;100.00
35989;BME280;22064;42.672;23.282;2023-02-03T03:23:50;94988.22;;;0.65;100.00
35989;BME280;22064;42.672;23.282;2023-02-03T03:26:43;95005.22;;;0.58;100.00
35989;BME280;22064;42.672;23.282;2023-02-03T03:29:32;94989.34;;;0.63;100.00
35989;BME280;22064;42.672;23.282;2023-02-03T03:32:20;95025.81;;;0.50;100.00
35989;BME280;22064;42.672;23.282;2023-02-03T03:35:05;95005.75;;;0.54;100.00
35989;BME280;22064;42.672;23.282;2023-02-03T03:38:06;94991.63;;;0.58;100.00
35989;BME280;22064;42.672;23.282;2023-02-03T03:40:57;94981.91;;;0.53;100.00
35989;BME280;22064;42.672;23.282;2023-02-03T03:43:46;95018.56;;;0.54;100.00
35989;BME280;22064;42.672;23.282;2023-02-03T03:46:58;95006.09;;;0.51;100.00
35989;BME280;22064;42.672;23.282;2023-02-03T03:49:46;94998.28;;;0.44;100.00
35989;BME280;22064;42.672;23.282;2023-02-03T03:52:34;94988.31;;;0.49;100.00
35989;BME280;22064;42.672;23.282;2023-02-03T03:55:20;94981.06;;;0.53;100.00
35989;BME280;22064;42.672;23.282;2023-02-03T03:58:07;95010.28;;;0.43;100.00
35989;BME280;22064;42.672;23.282;2023-02-03T04:00:56;94997.47;;;0.43;100.00
35989;BME280;22064;42.672;23.282;2023-02-03T04:03:47;94968.84;;;0.40;100.00
35989;BME280;22064;42.672;23.282;2023-02-03T04:06:32;94979.94;;;0.32;100.00
35989;BME280;22064;42.672;23.282;2023-02-03T04:09:16;94983.31;;;0.33;100.00
35989;BME280;22064;42.672;23.282;2023-02-03T04:12:00;94994.97;;;0.35;100.00
35989;BME280;22064;42.672;23.282;2023-02-03T04:14:44;94992.75;;;0.32;100.00
35989;BME280;22064;42.672;23.282;2023-02-03T04:17:28;94997.09;;;0.32;100.00
35989;BME280;22064;42.672;23.282;2023-02-03T04:20:13;95009.72;;;0.33;100.00
35989;BME280;22064;42.672;23.282;2023-02-03T04:22:58;95023.50;;;0.32;100.00
35989;BME280;22064;42.672;23.282;2023-02-03T04:25:42;94978.56;;;0.21;100.00
35989;BME280;22064;42.672;23.282;2023-02-03T04:28:27;95017.72;;;0.30;100.00
35989;BME280;22064;42.672;23.282;2023-02-03T04:31:11;95009.59;;;0.27;100.00
35989;BME280;22064;42.672;23.282;2023-02-03T04:33:55;95020.69;;;0.19;100.00
35989;BME280;22064;42.672;23.282;2023-02-03T04:36:39;94991.78;;;0.02;100.00
35989;BME280;22064;42.672;23.282;2023-02-03T04:39:23;95030.63;;;0.14;100.00
35989;BME280;22064;42.672;23.282;2023-02-03T04:42:08;95033.16;;;0.22;100.00
35989;BME280;22064;42.672;23.282;2023-02-03T04:44:52;95042.91;;;0.18;100.00
35989;BME280;22064;42.672;23.282;2023-02-03T04:47:36;95028.88;;;0.14;100.00
35989;BME280;22064;42.672;23.282;2023-02-03T04:50:20;95043.25;;;0.15;100.00
35989;BME280;22064;42.672;23.282;2023-02-03T04:53:05;95039.91;;;0.15;100.00
35989;BME280;22064;42.672;23.282;2023-02-03T04:55:49;95063.75;;;0.15;100.00
35989;BME280;22064;42.672;23.282;2023-02-03T04:58:35;95072.16;;;0.32;100.00
35989;BME280;22064;42.672;23.282;2023-02-03T05:01:20;95061.59;;;0.27;100.00
35989;BME280;22064;42.672;23.282;2023-02-03T05:04:04;95053.66;;;0.22;100.00
35989;BME280;22064;42.672;23.282;2023-02-03T05:06:48;95072.53;;;0.21;100.00
35989;BME280;22064;42.672;23.282;2023-02-03T05:09:33;95063.41;;;0.18;100.00
35989;BME280;22064;42.672;23.282;2023-02-03T05:12:17;95077.78;;;0.28;100.00
35989;BME280;22064;42.672;23.282;2023-02-03T05:15:01;95081.63;;;0.23;100.00
35989;BME280;22064;42.672;23.282;2023-02-03T05:17:46;95075.88;;;0.21;100.00
35989;BME280;22064;42.672;23.282;2023-02-03T05:20:30;95081.34;;;0.18;100.00
35989;BME280;22064;42.672;23.282;2023-02-03T05:23:14;95085.00;;;0.24;100.00
35989;BME280;22064;42.672;23.282;2023-02-03T05:25:58;95106.78;;;0.28;100.00
35989;BME280;22064;42.672;23.282;2023-02-03T05:28:43;95109.66;;;0.25;100.00
35989;BME280;22064;42.672;23.282;2023-02-03T05:31:27;95093.81;;;0.21;100.00
35989;BME280;22064;42.672;23.282;2023-02-03T05:34:11;95102.63;;;0.19;100.00
35989;BME280;22064;42.672;23.282;2023-02-03T05:36:55;95117.50;;;0.23;100.00
35989;BME280;22064;42.672;23.282;2023-02-03T05:39:39;95101.19;;;0.16;100.00
35989;BME280;22064;42.672;23.282;2023-02-03T05:42:23;95108.88;;;0.16;100.00
35989;BME280;22064;42.672;23.282;2023-02-03T05:45:08;95107.91;;;0.17;100.00
35989;BME280;22064;42.672;23.282;2023-02-03T05:47:53;95113.22;;;0.16;100.00
35989;BME280;22064;42.672;23.282;2023-02-03T05:50:37;95119.16;;;0.08;100.00
35989;BME280;22064;42.672;23.282;2023-02-03T05:53:25;95089.41;;;-0.01;100.00
35989;BME280;22064;42.672;23.282;2023-02-03T05:56:10;95119.16;;;0.08;100.00
35989;BME280;22064;42.672;23.282;2023-02-03T05:58:54;95129.69;;;0.13;100.00
35989;BME280;22064;42.672;23.282;2023-02-03T06:01:38;95122.16;;;0.12;100.00
35989;BME280;22064;42.672;23.282;2023-02-03T06:04:22;95114.34;;;0.05;100.00
35989;BME280;22064;42.672;23.282;2023-02-03T06:07:06;95113.38;;;0.06;100.00
35989;BME280;22064;42.672;23.282;2023-02-03T06:09:50;95124.72;;;0.20;100.00
35989;BME280;22064;42.672;23.282;2023-02-03T06:12:37;95133.19;;;0.29;100.00
35989;BME280;22064;42.672;23.282;2023-02-03T06:15:21;95132.06;;;0.23;100.00
35989;BME280;22064;42.672;23.282;2023-02-03T06:18:06;95142.13;;;0.33;100.00
35989;BME280;22064;42.672;23.282;2023-02-03T06:20:50;95145.59;;;0.40;100.00
35989;BME280;22064;42.672;23.282;2023-02-03T06:23:34;95130.53;;;0.45;100.00
35989;BME280;22064;42.672;23.282;2023-02-03T06:26:18;95146.16;;;0.58;100.00
35989;BME280;22064;42.672;23.282;2023-02-03T06:29:02;95130.06;;;0.41;100.00
35989;BME280;22064;42.672;23.282;2023-02-03T06:31:47;95140.88;;;0.60;100.00
35989;BME280;22064;42.672;23.282;2023-02-03T06:34:31;95161.53;;;0.58;100.00
35989;BME280;22064;42.672;23.282;2023-02-03T06:37:16;95158.31;;;0.64;100.00
35989;BME280;22064;42.672;23.282;2023-02-03T06:40:01;95163.56;;;0.71;100.00
35989;BME280;22064;42.672;23.282;2023-02-03T06:42:47;95150.41;;;0.74;100.00
35989;BME280;22064;42.672;23.282;2023-02-03T06:45:31;95166.66;;;0.98;100.00
35989;BME280;22064;42.672;23.282;2023-02-03T06:48:15;95167.75;;;1.03;100.00
35989;BME280;22064;42.672;23.282;2023-02-03T06:51:00;95182.94;;;1.05;100.00
35989;BME280;22064;42.672;23.282;2023-02-03T06:53:44;95171.72;;;1.06;100.00
35989;BME280;22064;42.672;23.282;2023-02-03T06:56:29;95181.69;;;1.24;100.00
35989;BME280;22064;42.672;23.282;2023-02-03T06:59:13;95177.56;;;1.23;100.00
35989;BME280;22064;42.672;23.282;2023-02-03T07:01:57;95184.91;;;1.26;100.00
35989;BME280;22064;42.672;23.282;2023-02-03T07:04:41;95190.06;;;1.18;100.00
35989;BME280;22064;42.672;23.282;2023-02-03T07:07:27;95167.31;;;1.14;100.00
35989;BME280;22064;42.672;23.282;2023-02-03T07:10:13;95181.31;;;1.35;100.00
35989;BME280;22064;42.672;23.282;2023-02-03T07:13:04;95197.22;;;1.30;100.00
35989;BME280;22064;42.672;23.282;2023-02-03T07:15:49;95175.41;;;1.49;100.00
35989;BME280;22064;42.672;23.282;2023-02-03T07:18:33;95196.59;;;1.51;100.00
35989;BME280;22064;42.672;23.282;2023-02-03T07:21:17;95185.47;;;1.36;100.00
35989;BME280;22064;42.672;23.282;2023-02-03T07:24:02;95184.03;;;1.33;100.00
35989;BME280;22064;42.672;23.282;2023-02-03T07:26:46;95200.88;;;1.36;100.00
35989;BME280;22064;42.672;23.282;2023-02-03T07:29:31;95209.41;;;1.51;100.00
35989;BME280;22064;42.672;23.282;2023-02-03T07:32:15;95199.72;;;1.15;100.00
35989;BME280;22064;42.672;23.282;2023-02-03T07:34:59;95208.97;;;1.25;100.00
35989;BME280;22064;42.672;23.282;2023-02-03T07:37:44;95208.81;;;1.18;100.00
35989;BME280;22064;42.672;23.282;2023-02-03T07:40:29;95200.75;;;1.29;100.00
35989;BME280;22064;42.672;23.282;2023-02-03T07:43:13;95216.47;;;1.26;100.00
35989;BME280;22064;42.672;23.282;2023-02-03T07:45:58;95220.94;;;1.32;100.00
35989;BME280;22064;42.672;23.282;2023-02-03T07:48:42;95207.88;;;1.19;100.00
35989;BME280;22064;42.672;23.282;2023-02-03T07:51:26;95215.75;;;1.41;100.00
35989;BME280;22064;42.672;23.282;2023-02-03T07:54:11;95211.25;;;1.43;100.00
35989;BME280;22064;42.672;23.282;2023-02-03T07:56:55;95220.25;;;1.38;100.00
35989;BME280;22064;42.672;23.282;2023-02-03T07:59:39;95204.00;;;1.46;100.00
35989;BME280;22064;42.672;23.282;2023-02-03T08:02:23;95231.28;;;1.47;100.00
35989;BME280;22064;42.672;23.282;2023-02-03T08:05:08;95218.38;;;1.55;100.00
35989;BME280;22064;42.672;23.282;2023-02-03T08:07:53;95200.41;;;1.55;100.00
35989;BME280;22064;42.672;23.282;2023-02-03T08:10:37;95203.66;;;1.49;100.00
35989;BME280;22064;42.672;23.282;2023-02-03T08:13:21;95209.00;;;1.39;100.00
35989;BME280;22064;42.672;23.282;2023-02-03T08:16:06;95217.19;;;1.66;100.00
35989;BME280;22064;42.672;23.282;2023-02-03T08:18:50;95200.44;;;1.70;100.00
35989;BME280;22064;42.672;23.282;2023-02-03T08:21:34;95197.56;;;1.50;100.00
35989;BME280;22064;42.672;23.282;2023-02-03T08:24:18;95197.22;;;1.53;100.00
35989;BME280;22064;42.672;23.282;2023-02-03T08:27:03;95210.81;;;1.62;100.00
35989;BME280;22064;42.672;23.282;2023-02-03T08:29:47;95212.38;;;1.63;100.00
35989;BME280;22064;42.672;23.282;2023-02-03T08:32:33;95201.34;;;1.77;100.00
35989;BME280;22064;42.672;23.282;2023-02-03T08:35:17;95220.31;;;1.76;100.00
35989;BME280;22064;42.672;23.282;2023-02-03T08:38:01;95229.50;;;1.71;100.00
35989;BME280;22064;42.672;23.282;2023-02-03T08:40:45;95210.31;;;1.81;100.00
35989;BME280;22064;42.672;23.282;2023-02-03T08:43:29;95229.38;;;1.87;100.00
35989;BME280;22064;42.672;23.282;2023-02-03T08:46:13;95231.72;;;1.74;100.00
35989;BME280;22064;42.672;23.282;2023-02-03T08:48:57;95245.81;;;1.78;100.00
35989;BME280;22064;42.672;23.282;2023-02-03T08:51:44;95254.72;;;1.90;100.00
35989;BME280;22064;42.672;23.282;2023-02-03T08:54:28;95245.59;;;2.02;100.00
35989;BME280;22064;42.672;23.282;2023-02-03T08:57:13;95261.44;;;1.68;100.00
35989;BME280;22064;42.672;23.282;2023-02-03T08:59:57;95272.09;;;1.80;100.00
35989;BME280;22064;42.672;23.282;2023-02-03T09:02:41;95263.72;;;1.63;100.00
35989;BME280;22064;42.672;23.282;2023-02-03T09:05:29;95278.44;;;1.69;100.00
35989;BME280;22064;42.672;23.282;2023-02-03T09:08:13;95246.78;;;1.77;100.00
35989;BME280;22064;42.672;23.282;2023-02-03T09:10:57;95272.28;;;1.78;100.00
35989;BME280;22064;42.672;23.282;2023-02-03T09:13:42;95252.66;;;1.63;100.00
35989;BME280;22064;42.672;23.282;2023-02-03T09:16:29;95245.88;;;1.70;100.00
35989;BME280;22064;42.672;23.282;2023-02-03T09:19:13;95241.53;;;1.93;100.00
35989;BME280;22064;42.672;23.282;2023-02-03T09:21:58;95249.34;;;2.00;100.00
35989;BME280;22064;42.672;23.282;2023-02-03T09:24:43;95232.63;;;2.19;100.00
35989;BME280;22064;42.672;23.282;2023-02-03T09:27:27;95235.13;;;2.42;100.00
35989;BME280;22064;42.672;23.282;2023-02-03T09:30:11;95241.19;;;2.11;100.00
35989;BME280;22064;42.672;23.282;2023-02-03T09:32:57;95240.66;;;2.01;100.00
35989;BME280;22064;42.672;23.282;2023-02-03T09:35:51;95230.97;;;1.88;100.00
35989;BME280;22064;42.672;23.282;2023-02-03T09:38:35;95244.78;;;1.87;100.00
35989;BME280;22064;42.672;23.282;2023-02-03T09:47:44;95248.31;;;1.86;100.00
35989;BME280;22064;42.672;23.282;2023-02-03T09:50:31;95244.91;;;1.94;100.00
35989;BME280;22064;42.672;23.282;2023-02-03T09:53:37;95247.63;;;1.92;100.00
35989;BME280;22064;42.672;23.282;2023-02-03T09:56:32;95239.41;;;1.97;100.00
35989;BME280;22064;42.672;23.282;2023-02-03T09:59:18;95218.81;;;2.20;100.00
35989;BME280;22064;42.672;23.282;2023-02-03T10:08:42;95221.38;;;2.64;100.00
35989;BME280;22064;42.672;23.282;2023-02-03T10:15:02;95209.88;;;2.75;100.00
35989;BME280;22064;42.672;23.282;2023-02-03T10:17:57;95211.91;;;2.35;100.00
35989;BME280;22064;42.672;23.282;2023-02-03T10:20:47;95210.13;;;2.36;100.00
35989;BME280;22064;42.672;23.282;2023-02-03T10:23:34;95197.38;;;2.57;100.00
35989;BME280;22064;42.672;23.282;2023-02-03T10:26:22;95226.44;;;2.87;100.00
35989;BME280;22064;42.672;23.282;2023-02-03T10:29:20;95192.06;;;3.10;100.00
35989;BME280;22064;42.672;23.282;2023-02-03T10:32:13;95197.00;;;3.11;100.00
35989;BME280;22064;42.672;23.282;2023-02-03T10:34:57;95201.63;;;3.16;100.00
35989;BME280;22064;42.672;23.282;2023-02-03T10:37:48;95197.31;;;3.01;100.00
35989;BME280;22064;42.672;23.282;2023-02-03T10:40:33;95182.84;;;3.00;100.00
35989;BME280;22064;42.672;23.282;2023-02-03T10:43:18;95204.66;;;3.05;100.00
35989;BME280;22064;42.672;23.282;2023-02-03T10:46:29;95219.81;;;2.63;100.00
35989;BME280;22064;42.672;23.282;2023-02-03T10:49:15;95197.91;;;2.52;100.00
35989;BME280;22064;42.672;23.282;2023-02-03T10:52:00;95206.34;;;2.46;95.93
35989;BME280;22064;42.672;23.282;2023-02-03T10:54:48;95191.72;;;2.47;91.40
35989;BME280;22064;42.672;23.282;2023-02-03T10:57:35;95203.78;;;2.46;85.68
35989;BME280;22064;42.672;23.282;2023-02-03T11:00:27;95212.97;;;2.41;88.69
35989;BME280;22064;42.672;23.282;2023-02-03T11:06:14;95200.13;;;2.56;89.45
35989;BME280;22064;42.672;23.282;2023-02-03T11:08:58;95191.00;;;2.38;91.31
35989;BME280;22064;42.672;23.282;2023-02-03T11:11:43;95183.63;;;2.35;90.72
35989;BME280;22064;42.672;23.282;2023-02-03T11:14:35;95183.13;;;2.25;91.26
35989;BME280;22064;42.672;23.282;2023-02-03T11:17:22;95197.53;;;2.26;96.50
35989;BME280;22064;42.672;23.282;2023-02-03T11:20:14;95194.00;;;2.27;98.30
35989;BME280;22064;42.672;23.282;2023-02-03T11:23:00;95166.09;;;2.09;95.82
35989;BME280;22064;42.672;23.282;2023-02-03T11:25:46;95175.19;;;2.12;97.55
35989;BME280;22064;42.672;23.282;2023-02-03T11:28:30;95182.31;;;2.24;94.49
35989;BME280;22064;42.672;23.282;2023-02-03T11:31:17;95172.28;;;2.29;92.60
35989;BME280;22064;42.672;23.282;2023-02-03T11:34:14;95193.22;;;2.41;85.25
35989;BME280;22064;42.672;23.282;2023-02-03T11:37:32;95177.59;;;2.58;85.69
35989;BME280;22064;42.672;23.282;2023-02-03T11:43:14;95158.88;;;2.78;80.40
35989;BME280;22064;42.672;23.282;2023-02-03T11:46:03;95144.78;;;2.74;78.45
35989;BME280;22064;42.672;23.282;2023-02-03T11:55:51;95138.06;;;2.59;72.14
35989;BME280;22064;42.672;23.282;2023-02-03T12:29:19;95144.53;;;2.40;58.85
35989;BME280;22064;42.672;23.282;2023-02-03T12:32:11;95147.03;;;2.48;59.21
35989;BME280;22064;42.672;23.282;2023-02-03T12:35:05;95134.88;;;2.42;60.14
35989;BME280;22064;42.672;23.282;2023-02-03T12:38:13;95133.66;;;2.38;59.38
35989;BME280;22064;42.672;23.282;2023-02-03T12:41:05;95129.47;;;2.51;59.65
35989;BME280;22064;42.672;23.282;2023-02-03T12:43:52;95126.81;;;2.45;60.05
35989;BME280;22064;42.672;23.282;2023-02-03T12:46:48;95128.53;;;2.38;61.46
35989;BME280;22064;42.672;23.282;2023-02-03T12:49:49;95117.19;;;2.32;63.84
35989;BME280;22064;42.672;23.282;2023-02-03T12:53:02;95119.03;;;2.38;64.58
35989;BME280;22064;42.672;23.282;2023-02-03T12:55:52;95112.13;;;2.39;65.85
35989;BME280;22064;42.672;23.282;2023-02-03T12:58:44;95103.41;;;2.40;66.70
35989;BME280;22064;42.672;23.282;2023-02-03T13:01:39;95115.91;;;2.43;67.70
35989;BME280;22064;42.672;23.282;2023-02-03T13:04:50;95068.56;;;1.86;75.78
35989;BME280;22064;42.672;23.282;2023-02-03T13:07:40;95066.00;;;2.01;82.56
35989;BME280;22064;42.672;23.282;2023-02-03T13:10:36;95102.03;;;2.07;83.73
35989;BME280;22064;42.672;23.282;2023-02-03T13:13:31;95078.75;;;1.94;86.74
35989;BME280;22064;42.672;23.282;2023-02-03T13:16:22;95100.19;;;2.01;88.36
35989;BME280;22064;42.672;23.282;2023-02-03T13:19:14;95107.88;;;2.01;90.06
35989;BME280;22064;42.672;23.282;2023-02-03T13:22:00;95103.53;;;2.02;90.63
35989;BME280;22064;42.672;23.282;2023-02-03T13:25:08;95126.56;;;1.95;95.33
35989;BME280;22064;42.672;23.282;2023-02-03T13:37:23;95104.25;;;2.11;95.40
35989;BME280;22064;42.672;23.282;2023-02-03T13:40:31;95093.53;;;2.07;94.81
35989;BME280;22064;42.672;23.282;2023-02-03T13:43:27;95089.81;;;2.10;97.59
35989;BME280;22064;42.672;23.282;2023-02-03T13:46:38;95109.56;;;1.94;97.12
35989;BME280;22064;42.672;23.282;2023-02-03T13:49:27;95102.75;;;2.01;99.16
35989;BME280;22064;42.672;23.282;2023-02-03T13:52:27;95108.69;;;1.87;100.00
35989;BME280;22064;42.672;23.282;2023-02-03T13:55:58;95114.19;;;1.84;100.00
35989;BME280;22064;42.672;23.282;2023-02-03T13:58:58;95104.94;;;1.90;100.00
35989;BME280;22064;42.672;23.282;2023-02-03T14:01:42;95115.06;;;1.91;100.00
35989;BME280;22064;42.672;23.282;2023-02-03T14:10:21;95099.53;;;1.99;100.00
35989;BME280;22064;42.672;23.282;2023-02-03T14:13:19;95111.44;;;2.00;100.00
35989;BME280;22064;42.672;23.282;2023-02-03T14:16:22;95101.41;;;2.05;100.00
35989;BME280;22064;42.672;23.282;2023-02-03T14:22:07;95092.47;;;2.01;100.00
35989;BME280;22064;42.672;23.282;2023-02-03T14:24:53;95096.28;;;1.91;100.00
35989;BME280;22064;42.672;23.282;2023-02-03T14:27:39;95095.03;;;2.01;100.00
35989;BME280;22064;42.672;23.282;2023-02-03T14:30:24;95092.19;;;2.11;100.00
35989;BME280;22064;42.672;23.282;2023-02-03T14:33:08;95092.13;;;2.04;100.00
35989;BME280;22064;42.672;23.282;2023-02-03T14:35:52;95077.94;;;2.08;100.00
35989;BME280;22064;42.672;23.282;2023-02-03T14:38:37;95096.38;;;2.12;98.06
35989;BME280;22064;42.672;23.282;2023-02-03T14:41:28;95096.38;;;2.12;78.88
35989;BME280;22064;42.672;23.282;2023-02-03T14:56:46;95092.47;;;2.01;90.25
35989;BME280;22064;42.672;23.282;2023-02-03T15:03:23;95076.06;;;2.02;93.97
35989;BME280;22064;42.672;23.282;2023-02-03T15:06:43;95073.16;;;2.05;94.23
35989;BME280;22064;42.672;23.282;2023-02-03T15:09:40;95047.38;;;1.99;94.29
35989;BME280;22064;42.672;23.282;2023-02-03T15:12:34;95043.94;;;1.92;90.18
35989;BME280;22064;42.672;23.282;2023-02-03T15:15:30;95044.03;;;1.98;90.00
35989;BME280;22064;42.672;23.282;2023-02-03T15:18:28;95041.81;;;1.95;89.23
35989;BME280;22064;42.672;23.282;2023-02-03T15:21:18;95044.94;;;1.91;85.66
35989;BME280;22064;42.672;23.282;2023-02-03T15:24:12;95027.63;;;1.99;80.33
35989;BME280;22064;42.672;23.282;2023-02-03T15:26:57;95015.00;;;1.83;74.71
35989;BME280;22064;42.672;23.282;2023-02-03T15:29:41;95021.97;;;1.89;73.53
35989;BME280;22064;42.672;23.282;2023-02-03T15:32:29;95029.97;;;1.94;70.84
35989;BME280;22064;42.672;23.282;2023-02-03T15:35:18;95027.91;;;1.90;70.94
35989;BME280;22064;42.672;23.282;2023-02-03T15:38:14;95023.75;;;1.74;70.15
35989;BME280;22064;42.672;23.282;2023-02-03T15:41:01;95031.91;;;1.77;70.31
35989;BME280;22064;42.672;23.282;2023-02-03T15:43:49;95017.81;;;1.73;70.75
35989;BME280;22064;42.672;23.282;2023-02-03T15:46:40;95029.59;;;1.68;73.03
35989;BME280;22064;42.672;23.282;2023-02-03T15:49:29;95019.69;;;1.65;75.38
35989;BME280;22064;42.672;23.282;2023-02-03T15:52:19;95016.06;;;1.59;75.96
35989;BME280;22064;42.672;23.282;2023-02-03T15:55:17;95018.53;;;1.52;78.26
35989;BME280;22064;42.672;23.282;2023-02-03T15:58:04;94999.69;;;1.45;80.77
35989;BME280;22064;42.672;23.282;2023-02-03T16:00:55;95009.16;;;1.45;81.87
35989;BME280;22064;42.672;23.282;2023-02-03T16:03:44;94990.13;;;1.39;81.91
35989;BME280;22064;42.672;23.282;2023-02-03T16:06:32;95002.66;;;1.34;82.41
35989;BME280;22064;42.672;23.282;2023-02-03T16:14:56;94989.94;;;1.26;81.45
35989;BME280;22064;42.672;23.282;2023-02-03T16:17:41;94972.25;;;1.16;81.85
35989;BME280;22064;42.672;23.282;2023-02-03T16:20:26;94964.72;;;1.29;81.32
35989;BME280;22064;42.672;23.282;2023-02-03T16:23:19;94976.56;;;1.30;80.43
35989;BME280;22064;42.672;23.282;2023-02-03T16:26:18;94958.97;;;1.27;80.75
35989;BME280;22064;42.672;23.282;2023-02-03T16:29:10;94952.09;;;1.28;81.86
35989;BME280;22064;42.672;23.282;2023-02-03T16:32:17;94963.06;;;1.22;83.39
35989;BME280;22064;42.672;23.282;2023-02-03T16:35:21;94941.97;;;1.11;84.21
35989;BME280;22064;42.672;23.282;2023-02-03T16:38:24;94938.09;;;1.15;86.16
35989;BME280;22064;42.672;23.282;2023-02-03T16:41:27;94937.03;;;1.10;86.90
35989;BME280;22064;42.672;23.282;2023-02-03T16:44:30;94931.38;;;1.14;82.65